Time;durP1;ratioP1;P1;durP2;ratioP2;P2;SDS_P1;SDS_P2;PMS_P1;PMS_P2;Temp;Humidity;BMP_temperature;BMP_pressure;BME280_temperature;BME280_humidity;BME280_pressure;Samples;Min_cycle;Max_cycle;Signal;HPM_P1;HPM_P2
2021/12/03 00:00:05;;;;;;;;;13.00;12.00;;;;;;;;4908992;28;45934;-83
2021/12/03 00:02:30;;;;;;;;;14.33;13.00;;;;;;;;4891336;29;46049;-84
2021/12/03 00:04:55;;;;;;;;;16.00;14.00;;;;;;;;4891182;29;45884;-84
2021/12/03 00:07:21;;;;;;;;;11.67;11.67;;;;;;;;4893489;29;45480;-84
2021/12/03 00:09:46;;;;;;;;;13.67;12.33;;;;;;;;4894850;29;47107;-84
2021/12/03 00:12:11;;;;;;;;;15.67;14.33;;;;;;;;4892243;29;45480;-84
2021/12/03 00:14:37;;;;;;;;;12.33;12.00;;;;;;;;4892772;28;45496;-83
2021/12/03 00:17:03;;;;;;;;;13.00;13.00;;;;;;;;4890818;29;45393;-83
2021/12/03 00:19:28;;;;;;;;;22.33;14.00;;;;;;;;4907757;29;45493;-84
2021/12/03 00:21:53;;;;;;;;;15.33;13.67;;;;;;;;4908867;29;45401;-84
2021/12/03 00:24:19;;;;;;;;;18.33;17.33;;;;;;;;4908704;29;45736;-83
2021/12/03 00:26:45;;;;;;;;;12.67;12.67;;;;;;;;4892926;29;45335;-83
2021/12/03 00:29:11;;;;;;;;;18.33;17.00;;;;;;;;4907852;29;46660;-83
2021/12/03 00:31:36;;;;;;;;;15.33;15.33;;;;;;;;4908824;29;45919;-83
2021/12/03 00:34:02;;;;;;;;;16.67;13.33;;;;;;;;4891185;29;45370;-83
2021/12/03 00:36:28;;;;;;;;;15.33;15.33;;;;;;;;4909579;29;45329;-83
2021/12/03 00:38:58;;;;;;;;;21.67;18.00;;;;;;;;4891379;29;47283;-83
2021/12/03 00:41:24;;;;;;;;;16.00;13.33;;;;;;;;4907921;29;45366;-83
2021/12/03 00:43:51;;;;;;;;;15.33;13.67;;;;;;;;4889234;29;45525;-83
2021/12/03 00:46:17;;;;;;;;;13.67;13.33;;;;;;;;4890607;29;44962;-83
2021/12/03 00:48:47;;;;;;;;;16.00;13.33;;;;;;;;4905143;29;45548;-84
2021/12/03 00:51:12;;;;;;;;;14.67;14.33;;;;;;;;4888865;29;45522;-84
2021/12/03 00:53:38;;;;;;;;;14.67;14.67;;;;;;;;4906824;29;45546;-84
2021/12/03 00:56:04;;;;;;;;;17.67;14.67;;;;;;;;4889219;29;45341;-84
2021/12/03 00:58:30;;;;;;;;;13.67;13.67;;;;;;;;4890696;29;47136;-84
2021/12/03 01:00:55;;;;;;;;;12.33;12.00;;;;;;;;4907401;29;45430;-84
2021/12/03 01:03:20;;;;;;;;;10.00;10.00;;;;;;;;4891310;29;45323;-83
2021/12/03 01:05:46;;;;;;;;;16.67;12.67;;;;;;;;4909244;29;45479;-83
2021/12/03 01:08:11;;;;;;;;;18.00;14.67;;;;;;;;4891270;29;48589;-83
2021/12/03 01:10:36;;;;;;;;;12.33;10.00;;;;;;;;4908424;29;44802;-82
2021/12/03 01:13:02;;;;;;;;;12.67;11.33;;;;;;;;4892120;29;45834;-82
2021/12/03 01:15:29;;;;;;;;;16.00;15.00;;;;;;;;4891810;29;45434;-84
2021/12/03 01:17:54;;;;;;;;;15.00;14.00;;;;;;;;4908618;29;45603;-84
2021/12/03 01:20:20;;;;;;;;;16.00;13.33;;;;;;;;4892327;29;45467;-83
2021/12/03 01:22:47;;;;;;;;;12.67;12.67;;;;;;;;4893051;29;45397;-84
2021/12/03 01:25:13;;;;;;;;;16.67;13.67;;;;;;;;4892212;29;45885;-84
2021/12/03 01:27:38;;;;;;;;;9.33;9.00;;;;;;;;4892302;29;47924;-84
2021/12/03 01:30:08;;;;;;;;;10.00;10.00;;;;;;;;4891307;29;45819;-84
2021/12/03 01:32:33;;;;;;;;;13.33;13.33;;;;;;;;4908834;28;45499;-84
2021/12/03 01:38:02;;;;;;;;;9.00;9.00;;;;;;;;4906403;29;45486;-84
2021/12/03 01:40:28;;;;;;;;;14.00;10.00;;;;;;;;4907690;29;46002;-84
2021/12/03 01:42:54;;;;;;;;;17.67;11.33;;;;;;;;4890717;29;45506;-84
2021/12/03 01:45:22;;;;;;;;;12.67;11.67;;;;;;;;4891530;29;45824;-83
2021/12/03 01:47:48;;;;;;;;;11.33;9.67;;;;;;;;4905991;29;46200;-84
2021/12/03 01:50:14;;;;;;;;;15.67;13.00;;;;;;;;4890865;29;45784;-84
2021/12/03 01:52:40;;;;;;;;;8.67;8.67;;;;;;;;4907744;29;45383;-84
2021/12/03 01:58:08;;;;;;;;;12.33;12.33;;;;;;;;4909230;29;45466;-84
2021/12/03 02:00:35;;;;;;;;;13.00;13.00;;;;;;;;4890250;28;45405;-84
2021/12/03 02:03:01;;;;;;;;;16.67;15.33;;;;;;;;4905329;29;45374;-83
2021/12/03 02:05:26;;;;;;;;;14.00;12.00;;;;;;;;4888759;29;45655;-84
2021/12/03 02:07:51;;;;;;;;;18.33;14.00;;;;;;;;4907809;29;45428;-84
2021/12/03 02:10:19;;;;;;;;;16.33;14.00;;;;;;;;4872335;29;45811;-84
2021/12/03 02:12:44;;;;;;;;;18.00;13.67;;;;;;;;4905303;29;45491;-84
2021/12/03 02:15:09;;;;;;;;;12.67;10.00;;;;;;;;4904954;29;45737;-85
2021/12/03 02:17:35;;;;;;;;;16.67;13.33;;;;;;;;4904912;29;46129;-83
2021/12/03 02:20:01;;;;;;;;;10.00;10.00;;;;;;;;4888611;29;45649;-83
2021/12/03 02:22:27;;;;;;;;;13.33;13.00;;;;;;;;4906357;29;45394;-83
2021/12/03 02:24:53;;;;;;;;;14.67;13.67;;;;;;;;4888693;29;45446;-83
2021/12/03 02:27:18;;;;;;;;;15.33;11.33;;;;;;;;4905319;29;45064;-83
2021/12/03 02:29:44;;;;;;;;;17.33;15.33;;;;;;;;4888341;29;45351;-83
2021/12/03 02:32:09;;;;;;;;;14.33;11.33;;;;;;;;4905405;29;45431;-84
2021/12/03 02:34:36;;;;;;;;;12.33;11.00;;;;;;;;4888226;29;45499;-84
2021/12/03 02:37:03;;;;;;;;;13.00;13.00;;;;;;;;4887848;29;47276;-85
2021/12/03 02:39:29;;;;;;;;;8.67;6.33;;;;;;;;4906637;29;45649;-84
2021/12/03 02:41:54;;;;;;;;;10.33;10.00;;;;;;;;4905806;29;45721;-84
2021/12/03 02:44:21;;;;;;;;;11.33;11.00;;;;;;;;4889560;29;45407;-83
2021/12/03 02:46:46;;;;;;;;;9.33;8.67;;;;;;;;4889109;29;47196;-83
2021/12/03 02:49:14;;;;;;;;;10.00;10.00;;;;;;;;4890153;29;45745;-83
2021/12/03 02:51:40;;;;;;;;;8.00;8.00;;;;;;;;4890744;29;45387;-83
2021/12/03 02:54:05;;;;;;;;;9.00;9.00;;;;;;;;4890059;29;45466;-82
2021/12/03 02:56:30;;;;;;;;;11.00;9.00;;;;;;;;4889947;29;47679;-84
2021/12/03 02:58:56;;;;;;;;;9.00;9.00;;;;;;;;4891288;29;45577;-83
2021/12/03 03:01:21;;;;;;;;;10.67;10.67;;;;;;;;4894285;29;45467;-83
2021/12/03 03:03:46;;;;;;;;;11.67;10.00;;;;;;;;4909992;29;45330;-83
2021/12/03 03:06:12;;;;;;;;;9.00;9.00;;;;;;;;4893998;29;46714;-83
2021/12/03 03:08:40;;;;;;;;;12.00;9.00;;;;;;;;4895563;29;45501;-84
2021/12/03 03:11:06;;;;;;;;;12.33;9.33;;;;;;;;4911709;28;45545;-83
2021/12/03 03:13:31;;;;;;;;;9.00;6.67;;;;;;;;4911194;29;45372;-83
2021/12/03 03:15:57;;;;;;;;;11.33;9.33;;;;;;;;4894485;29;46935;-84
2021/12/03 03:18:26;;;;;;;;;11.33;9.33;;;;;;;;4893858;29;45424;-84
2021/12/03 03:20:52;;;;;;;;;10.00;6.00;;;;;;;;4892572;29;45612;-84
2021/12/03 03:23:18;;;;;;;;;10.00;10.00;;;;;;;;4892135;29;45455;-84
2021/12/03 03:25:44;;;;;;;;;8.00;8.00;;;;;;;;4889614;29;48383;-84
2021/12/03 03:28:10;;;;;;;;;12.67;12.67;;;;;;;;4891109;29;45712;-84
2021/12/03 03:33:38;;;;;;;;;8.67;7.33;;;;;;;;4910580;28;45404;-84
2021/12/03 03:36:04;;;;;;;;;6.00;6.00;;;;;;;;4908000;29;45904;-83
2021/12/03 03:38:29;;;;;;;;;9.67;9.67;;;;;;;;4909306;29;45464;-83
2021/12/03 03:40:54;;;;;;;;;12.00;11.33;;;;;;;;4892499;29;45774;-83
2021/12/03 03:43:20;;;;;;;;;13.00;11.33;;;;;;;;4900494;28;45498;-84
2021/12/03 03:45:46;;;;;;;;;9.33;9.33;;;;;;;;4872897;29;48284;-84
2021/12/03 03:48:12;;;;;;;;;14.00;12.33;;;;;;;;4874037;29;45035;-83
2021/12/03 03:50:37;;;;;;;;;14.67;12.00;;;;;;;;4872955;29;45438;-83
2021/12/03 03:53:02;;;;;;;;;11.33;9.67;;;;;;;;4871442;29;45491;-83
2021/12/03 03:55:28;;;;;;;;;8.00;7.33;;;;;;;;4870558;29;47278;-84
2021/12/03 03:57:55;;;;;;;;;9.00;7.33;;;;;;;;4873673;29;45355;-83
2021/12/03 04:00:23;;;;;;;;;9.33;8.33;;;;;;;;4871485;29;45439;-83
2021/12/03 04:02:49;;;;;;;;;9.00;9.00;;;;;;;;4870845;29;45973;-83
2021/12/03 04:05:14;;;;;;;;;10.00;9.00;;;;;;;;4888179;29;45499;-84
2021/12/03 04:07:40;;;;;;;;;11.33;9.67;;;;;;;;4871837;29;45828;-83
2021/12/03 04:10:06;;;;;;;;;9.33;8.33;;;;;;;;4889132;29;44864;-83
2021/12/03 04:12:31;;;;;;;;;7.67;7.67;;;;;;;;4888320;29;45786;-83
2021/12/03 04:14:56;;;;;;;;;6.00;6.00;;;;;;;;4871971;29;47129;-83
2021/12/03 04:17:28;;;;;;;;;15.33;8.67;;;;;;;;4872828;29;45500;-84
2021/12/03 04:19:53;;;;;;;;;8.67;8.33;;;;;;;;4888111;29;45505;-84
2021/12/03 04:22:23;;;;;;;;;6.00;6.00;;;;;;;;4870856;29;45573;-83
2021/12/03 04:24:49;;;;;;;;;9.00;9.00;;;;;;;;4870657;29;47170;-83
2021/12/03 04:27:14;;;;;;;;;6.00;6.00;;;;;;;;4872763;29;45786;-84
2021/12/03 04:29:39;;;;;;;;;6.00;6.00;;;;;;;;4870767;29;45474;-84
2021/12/03 04:32:05;;;;;;;;;5.67;5.67;;;;;;;;4872213;29;45500;-84
2021/12/03 04:34:30;;;;;;;;;5.67;5.00;;;;;;;;4888607;29;45364;-84
2021/12/03 04:36:55;;;;;;;;;7.00;7.00;;;;;;;;4888695;29;45775;-84
2021/12/03 04:39:21;;;;;;;;;9.33;7.33;;;;;;;;4871651;29;45531;-84
2021/12/03 04:41:46;;;;;;;;;6.67;6.67;;;;;;;;4886553;29;45767;-84
2021/12/03 04:44:11;;;;;;;;;9.00;8.67;;;;;;;;4885821;29;47354;-84
2021/12/03 04:46:36;;;;;;;;;6.00;6.00;;;;;;;;4889921;29;45420;-84
2021/12/03 04:49:02;;;;;;;;;8.00;8.00;;;;;;;;4890485;29;45434;-84
2021/12/03 04:51:27;;;;;;;;;13.00;9.00;;;;;;;;4894662;28;45448;-85
2021/12/03 04:53:53;;;;;;;;;7.33;7.33;;;;;;;;4893831;29;48331;-84
2021/12/03 04:56:18;;;;;;;;;9.00;9.00;;;;;;;;4911834;28;44891;-84
2021/12/03 04:58:43;;;;;;;;;8.67;6.00;;;;;;;;4894461;29;45451;-84
2021/12/03 05:01:09;;;;;;;;;9.33;8.00;;;;;;;;4892682;29;45952;-84
2021/12/03 05:03:34;;;;;;;;;7.67;7.67;;;;;;;;4907846;29;45508;-84
2021/12/03 05:06:02;;;;;;;;;8.33;8.33;;;;;;;;4889049;29;45142;-84
2021/12/03 05:08:28;;;;;;;;;4.33;4.33;;;;;;;;4889313;29;45460;-84
2021/12/03 05:10:54;;;;;;;;;8.00;6.00;;;;;;;;4887485;29;45415;-84
2021/12/03 05:13:31;;;;;;;;;5.67;5.00;;;;;;;;4907117;29;46026;-84
2021/12/03 05:15:56;;;;;;;;;6.00;6.00;;;;;;;;4906751;29;45874;-84
2021/12/03 05:18:23;;;;;;;;;5.00;5.00;;;;;;;;4889620;29;45458;-84
2021/12/03 05:20:50;;;;;;;;;5.67;5.67;;;;;;;;4891057;29;45848;-84
2021/12/03 05:23:16;;;;;;;;;6.00;6.00;;;;;;;;4905444;29;46261;-84
2021/12/03 05:25:42;;;;;;;;;8.00;8.00;;;;;;;;4909719;29;45815;-84
2021/12/03 05:28:15;;;;;;;;;7.67;7.67;;;;;;;;4892329;29;44943;-84
2021/12/03 05:30:41;;;;;;;;;6.00;6.00;;;;;;;;4874043;29;45491;-84
2021/12/03 05:33:06;;;;;;;;;9.00;9.00;;;;;;;;4889845;29;45951;-85
2021/12/03 05:35:32;;;;;;;;;13.67;11.67;;;;;;;;4906741;29;45407;-84
2021/12/03 05:37:57;;;;;;;;;8.00;8.00;;;;;;;;4907123;29;45541;-85
2021/12/03 05:40:23;;;;;;;;;13.00;12.67;;;;;;;;4890256;29;46015;-84
2021/12/03 05:42:48;;;;;;;;;7.00;7.00;;;;;;;;4903294;28;45437;-84
2021/12/03 05:46:07;;;;;;;;;5.00;5.00;;;;;;;;4819274;27;8398874;-83
2021/12/03 05:48:33;;;;;;;;;3.00;3.00;;;;;;;;5103113;27;45405;-84
2021/12/03 05:50:58;;;;;;;;;5.00;5.00;;;;;;;;5102879;27;45397;-84
2021/12/03 05:53:23;;;;;;;;;7.33;5.33;;;;;;;;5100083;27;45493;-84
2021/12/03 05:55:50;;;;;;;;;2.67;2.67;;;;;;;;5119595;27;45411;-84
2021/12/03 05:58:17;;;;;;;;;5.00;4.00;;;;;;;;5101184;27;46102;-84
2021/12/03 06:00:43;;;;;;;;;5.00;5.00;;;;;;;;5100462;27;45847;-83
2021/12/03 06:03:08;;;;;;;;;5.00;5.00;;;;;;;;5099668;27;45523;-83
2021/12/03 06:05:34;;;;;;;;;6.00;5.00;;;;;;;;5099579;27;47053;-84
2021/12/03 06:08:00;;;;;;;;;4.00;3.33;;;;;;;;5099134;27;46173;-84
2021/12/03 06:10:26;;;;;;;;;6.00;3.67;;;;;;;;5100884;27;45505;-83
2021/12/03 06:12:52;;;;;;;;;3.33;3.33;;;;;;;;5102237;27;45435;-84
2021/12/03 06:15:18;;;;;;;;;3.33;3.33;;;;;;;;5119667;27;45471;-83
2021/12/03 06:17:43;;;;;;;;;5.00;5.00;;;;;;;;5084437;27;45421;-83
2021/12/03 06:20:11;;;;;;;;;3.67;2.33;;;;;;;;5102130;27;45396;-84
2021/12/03 06:22:37;;;;;;;;;5.00;5.00;;;;;;;;5103088;27;45519;-83
2021/12/03 06:25:03;;;;;;;;;4.00;4.00;;;;;;;;5119026;27;45423;-83
2021/12/03 06:27:30;;;;;;;;;6.00;5.33;;;;;;;;5100644;27;45480;-84
2021/12/03 06:29:55;;;;;;;;;9.00;5.00;;;;;;;;5101659;27;45486;-84
2021/12/03 06:32:20;;;;;;;;;5.33;5.33;;;;;;;;5104449;27;45802;-85
2021/12/03 06:34:46;;;;;;;;;8.00;5.67;;;;;;;;5104708;27;47367;-84
2021/12/03 06:37:11;;;;;;;;;6.00;3.67;;;;;;;;5122183;27;45353;-84
2021/12/03 06:39:39;;;;;;;;;5.00;5.00;;;;;;;;5121343;27;45940;-85
2021/12/03 06:42:05;;;;;;;;;5.00;5.00;;;;;;;;5102681;27;45783;-84
2021/12/03 06:45:08;;;;;;;;;3.33;3.33;;;;;;;;5093399;27;47277;-83
2021/12/03 06:47:41;;;;;;;;;3.33;3.33;;;;;;;;5061205;28;45920;-84
2021/12/03 06:50:08;;;;;;;;;3.67;3.67;;;;;;;;5046131;28;45545;-84
2021/12/03 06:52:35;;;;;;;;;4.67;3.33;;;;;;;;5055422;28;45417;-84
2021/12/03 06:55:03;;;;;;;;;3.67;3.67;;;;;;;;5053282;28;47140;-84
2021/12/03 06:57:30;;;;;;;;;4.00;2.00;;;;;;;;5042949;28;45523;-85
2021/12/03 06:59:56;;;;;;;;;7.33;5.33;;;;;;;;5056654;28;45326;-84
2021/12/03 07:02:21;;;;;;;;;4.67;4.67;;;;;;;;5064630;28;45499;-84
2021/12/03 07:04:46;;;;;;;;;3.67;3.67;;;;;;;;5045170;28;47091;-84
2021/12/03 07:07:11;;;;;;;;;6.00;5.67;;;;;;;;5064558;28;45335;-84
2021/12/03 07:09:38;;;;;;;;;4.33;4.00;;;;;;;;5065935;28;45381;-84
2021/12/03 07:12:03;;;;;;;;;6.00;3.67;;;;;;;;5067327;28;45354;-83
2021/12/03 07:14:29;;;;;;;;;5.33;3.00;;;;;;;;5066994;28;46215;-84
2021/12/03 07:16:54;;;;;;;;;5.00;3.67;;;;;;;;5067836;28;45393;-84
2021/12/03 07:19:19;;;;;;;;;3.33;2.00;;;;;;;;5050808;28;45354;-84
2021/12/03 07:21:45;;;;;;;;;3.33;3.33;;;;;;;;5048154;28;45672;-84
2021/12/03 07:24:10;;;;;;;;;5.00;5.00;;;;;;;;5047253;28;47003;-83
2021/12/03 07:26:35;;;;;;;;;4.67;4.67;;;;;;;;5036820;28;45385;-83
2021/12/03 07:29:01;;;;;;;;;2.33;2.33;;;;;;;;5066360;28;45471;-83
2021/12/03 07:31:26;;;;;;;;;3.33;3.33;;;;;;;;5075164;28;45690;-83
2021/12/03 07:36:54;;;;;;;;;2.33;2.33;;;;;;;;5061518;28;45354;-84
2021/12/03 07:39:20;;;;;;;;;3.33;2.00;;;;;;;;5052947;28;45393;-83
2021/12/03 07:41:45;;;;;;;;;3.33;3.33;;;;;;;;5048947;28;45499;-83
2021/12/03 07:44:10;;;;;;;;;2.00;2.00;;;;;;;;5028386;28;47314;-83
2021/12/03 07:46:36;;;;;;;;;2.67;2.00;;;;;;;;5063292;28;45560;-84
2021/12/03 07:49:03;;;;;;;;;2.67;2.67;;;;;;;;5060115;28;45488;-82
2021/12/03 07:51:29;;;;;;;;;3.00;3.00;;;;;;;;5087290;28;45738;-82
2021/12/03 07:53:54;;;;;;;;;2.00;2.00;;;;;;;;5077772;28;45457;-81
2021/12/03 07:56:19;;;;;;;;;1.33;1.33;;;;;;;;5052941;28;45575;-84
2021/12/03 07:58:45;;;;;;;;;2.67;2.00;;;;;;;;5066612;28;45519;-82
2021/12/03 08:01:13;;;;;;;;;2.00;2.00;;;;;;;;5083628;28;45428;-81
2021/12/03 08:03:38;;;;;;;;;2.00;2.00;;;;;;;;5086580;28;45589;-81
2021/12/03 08:06:08;;;;;;;;;3.67;3.67;;;;;;;;5075580;28;45467;-81
2021/12/03 08:08:33;;;;;;;;;2.00;2.00;;;;;;;;5063729;28;45253;-80
2021/12/03 08:10:59;;;;;;;;;3.33;3.33;;;;;;;;5082435;28;45555;-81
2021/12/03 08:13:25;;;;;;;;;1.00;1.00;;;;;;;;5067336;27;46670;-81
2021/12/03 08:15:51;;;;;;;;;4.33;2.33;;;;;;;;5059520;28;45603;-82
2021/12/03 08:18:17;;;;;;;;;2.00;2.00;;;;;;;;5088384;28;44855;-82
2021/12/03 08:20:42;;;;;;;;;7.67;5.00;;;;;;;;5074755;28;45571;-82
2021/12/03 08:23:08;;;;;;;;;3.00;3.00;;;;;;;;5054578;28;47052;-82
2021/12/03 08:25:38;;;;;;;;;6.00;5.33;;;;;;;;5053108;28;45410;-81
2021/12/03 08:28:04;;;;;;;;;4.33;4.33;;;;;;;;5060078;28;45532;-82
2021/12/03 08:30:29;;;;;;;;;4.33;3.00;;;;;;;;5068724;28;45483;-82
2021/12/03 08:32:56;;;;;;;;;3.33;3.33;;;;;;;;5062337;28;47003;-82
2021/12/03 08:35:42;;;;;;;;;3.33;2.00;;;;;;;;5067953;28;45875;-85
2021/12/03 08:38:09;;;;;;;;;2.33;2.33;;;;;;;;5063113;28;45635;-83
2021/12/03 08:40:34;;;;;;;;;3.00;3.00;;;;;;;;5064637;28;45405;-83
2021/12/03 08:46:09;;;;;;;;;5.67;5.00;;;;;;;;5085928;28;44770;-83
2021/12/03 08:48:38;;;;;;;;;3.33;3.33;;;;;;;;5062031;28;45417;-83
2021/12/03 08:56:36;;;;;;;;;4.67;4.67;;;;;;;;5077895;28;45813;-82
2021/12/03 08:59:03;;;;;;;;;5.00;4.33;;;;;;;;5046682;28;45500;-84
2021/12/03 09:01:28;;;;;;;;;6.00;5.67;;;;;;;;5058898;28;45543;-83
2021/12/03 09:03:54;;;;;;;;;6.33;6.33;;;;;;;;5063566;28;48136;-83
2021/12/03 09:06:26;;;;;;;;;6.00;5.00;;;;;;;;5052981;28;45436;-86
2021/12/03 09:08:51;;;;;;;;;5.67;3.00;;;;;;;;5059723;28;45825;-84
2021/12/03 09:11:17;;;;;;;;;6.00;5.33;;;;;;;;5060949;28;45828;-82
2021/12/03 09:13:48;;;;;;;;;5.33;5.00;;;;;;;;5057225;28;47648;-82
2021/12/03 09:16:17;;;;;;;;;2.00;2.00;;;;;;;;5054784;28;45467;-84
2021/12/03 09:18:47;;;;;;;;;2.67;2.67;;;;;;;;5076024;28;45898;-81
2021/12/03 09:21:23;;;;;;;;;6.33;6.33;;;;;;;;5052689;28;45371;-81
2021/12/03 09:26:17;;;;;;;;;7.00;6.67;;;;;;;;5077905;27;45282;-81
2021/12/03 09:28:44;;;;;;;;;2.33;2.33;;;;;;;;5056672;28;45453;-82
2021/12/03 09:31:12;;;;;;;;;6.67;6.67;;;;;;;;5057735;28;44931;-81
2021/12/03 09:33:39;;;;;;;;;6.33;5.33;;;;;;;;5054799;28;46947;-82
2021/12/03 09:36:06;;;;;;;;;5.33;5.33;;;;;;;;5062822;28;45867;-82
2021/12/03 09:38:33;;;;;;;;;7.00;7.00;;;;;;;;5056441;28;44950;-82
2021/12/03 09:41:07;;;;;;;;;6.33;6.33;;;;;;;;5074085;28;46107;-83
2021/12/03 09:43:34;;;;;;;;;5.00;5.00;;;;;;;;5061225;28;46840;-83
2021/12/03 09:46:22;;;;;;;;;7.67;5.00;;;;;;;;5064746;28;45562;-83
2021/12/03 09:51:11;;;;;;;;;7.00;5.00;;;;;;;;5079619;27;44931;-82
2021/12/03 09:56:23;;;;;;;;;5.33;5.33;;;;;;;;5076117;28;44851;-84
2021/12/03 10:01:41;;;;;;;;;5.33;3.33;;;;;;;;5052776;28;45332;-81
2021/12/03 10:15:14;;;;;;;;;6.00;6.00;;;;;;;;5077062;27;44941;-84
2021/12/03 11:02:49;;;;;;;;;7.67;7.00;;;;;;;;5014209;28;45677;-83
2021/12/03 11:29:57;;;;;;;;;2.33;2.33;;;;;;;;4900314;29;45903;-83
2021/12/03 13:10:56;;;;;;;;;1.00;1.00;;;;;;;;5072668;28;45807;-83
2021/12/03 14:13:03;;;;;;;;;2.00;2.00;;;;;;;;4966074;28;45396;-84
2021/12/03 14:53:33;;;;;;;;;2.00;2.00;;;;;;;;4929649;28;45479;-84
2021/12/03 14:56:11;;;;;;;;;2.00;2.00;;;;;;;;4910773;28;45505;-85
2021/12/03 15:35:54;;;;;;;;;5.00;3.00;;;;;;;;4946583;28;45980;-83
2021/12/03 15:55:08;;;;;;;;;5.00;2.33;;;;;;;;5085475;28;45509;-85
2021/12/03 16:19:23;;;;;;;;;3.00;3.00;;;;;;;;5072849;28;45707;-84
2021/12/03 16:22:14;;;;;;;;;5.00;5.00;;;;;;;;5045473;28;45476;-85
2021/12/03 16:24:59;;;;;;;;;11.00;9.00;;;;;;;;5051976;28;46717;-84
2021/12/03 16:53:49;;;;;;;;;5.00;5.00;;;;;;;;5078891;28;45566;-84
2021/12/03 16:56:18;;;;;;;;;8.33;6.00;;;;;;;;5060441;28;47073;-84
2021/12/03 16:58:45;;;;;;;;;3.00;3.00;;;;;;;;5047060;28;45730;-83
2021/12/03 17:03:49;;;;;;;;;6.33;6.33;;;;;;;;5063274;28;44909;-83
2021/12/03 17:51:34;;;;;;;;;9.67;5.00;;;;;;;;5080102;28;45509;-82
2021/12/03 17:54:12;;;;;;;;;6.67;6.67;;;;;;;;5067842;28;44872;-83
2021/12/03 17:56:45;;;;;;;;;9.00;7.00;;;;;;;;5054048;28;45425;-83
2021/12/03 17:59:31;;;;;;;;;7.00;7.00;;;;;;;;5059901;28;47223;-83
2021/12/03 18:48:16;;;;;;;;;10.00;9.00;;;;;;;;5060147;28;45544;-82
2021/12/03 18:53:44;;;;;;;;;18.67;16.33;;;;;;;;5066929;28;45447;-83
2021/12/03 18:56:20;;;;;;;;;17.67;17.33;;;;;;;;5066908;28;45830;-83
2021/12/03 18:58:50;;;;;;;;;18.33;18.00;;;;;;;;5048288;28;45397;-83
2021/12/03 19:01:16;;;;;;;;;15.00;15.00;;;;;;;;5049190;28;44829;-83
2021/12/03 19:09:05;;;;;;;;;18.33;15.67;;;;;;;;5066494;28;45351;-83
2021/12/03 19:13:58;;;;;;;;;23.33;22.00;;;;;;;;5065236;28;45408;-83
2021/12/03 19:16:25;;;;;;;;;17.33;16.67;;;;;;;;5047904;28;45387;-83
2021/12/03 19:18:52;;;;;;;;;23.33;21.00;;;;;;;;5067194;27;45567;-83
2021/12/03 19:21:23;;;;;;;;;16.00;16.00;;;;;;;;5046975;28;45427;-83
2021/12/03 19:23:49;;;;;;;;;16.00;13.00;;;;;;;;5046555;28;47538;-82
2021/12/03 19:26:15;;;;;;;;;12.00;11.67;;;;;;;;5065131;28;45339;-83
2021/12/03 19:28:41;;;;;;;;;10.00;10.00;;;;;;;;5064327;28;45361;-83
2021/12/03 19:31:07;;;;;;;;;15.00;11.00;;;;;;;;5046485;28;45623;-83
2021/12/03 19:33:35;;;;;;;;;10.67;8.33;;;;;;;;5065430;28;45808;-83
2021/12/03 19:36:01;;;;;;;;;6.00;6.00;;;;;;;;5047193;28;45854;-83
2021/12/03 19:38:26;;;;;;;;;8.00;7.00;;;;;;;;5064361;28;45463;-83
2021/12/03 19:40:55;;;;;;;;;10.67;10.67;;;;;;;;5068545;28;45440;-83
2021/12/03 19:43:28;;;;;;;;;10.33;10.33;;;;;;;;5047250;28;47415;-83
2021/12/03 19:46:03;;;;;;;;;10.67;10.67;;;;;;;;5064006;28;45737;-83
2021/12/03 19:48:38;;;;;;;;;16.33;16.33;;;;;;;;5045797;28;45752;-83
2021/12/03 19:51:12;;;;;;;;;20.67;19.33;;;;;;;;5045916;28;45645;-83
2021/12/03 19:53:43;;;;;;;;;19.00;17.33;;;;;;;;5046020;28;47386;-83
2021/12/03 19:56:08;;;;;;;;;13.67;13.67;;;;;;;;5066306;28;45831;-83
2021/12/03 19:58:35;;;;;;;;;18.67;16.33;;;;;;;;5048042;28;45733;-83
2021/12/03 20:01:00;;;;;;;;;20.67;20.67;;;;;;;;5047124;28;45746;-84
2021/12/03 20:03:26;;;;;;;;;28.67;22.33;;;;;;;;5064823;28;45537;-84
2021/12/03 20:05:51;;;;;;;;;14.00;13.33;;;;;;;;5048513;28;45449;-83
2021/12/03 20:08:17;;;;;;;;;16.00;15.00;;;;;;;;5048003;28;45421;-83
2021/12/03 20:10:46;;;;;;;;;11.67;11.00;;;;;;;;5068240;28;45461;-83
2021/12/03 20:13:12;;;;;;;;;15.00;10.00;;;;;;;;5048155;28;48197;-83
2021/12/03 20:15:54;;;;;;;;;12.00;12.00;;;;;;;;5064215;28;45460;-84
2021/12/03 20:18:33;;;;;;;;;15.00;12.33;;;;;;;;5045216;28;45465;-84
2021/12/03 20:20:59;;;;;;;;;10.00;10.00;;;;;;;;5026035;28;45540;-83
2021/12/03 20:26:29;;;;;;;;;9.33;9.33;;;;;;;;4963344;28;45528;-83
2021/12/03 20:29:06;;;;;;;;;6.67;6.67;;;;;;;;4950163;28;45631;-82
2021/12/03 20:31:34;;;;;;;;;7.00;7.00;;;;;;;;4950119;28;44812;-84
2021/12/03 20:36:41;;;;;;;;;7.33;7.33;;;;;;;;4966042;28;45484;-85
2021/12/03 20:39:17;;;;;;;;;7.00;7.00;;;;;;;;4948907;28;45572;-84
2021/12/03 20:46:49;;;;;;;;;12.00;11.00;;;;;;;;4976725;28;45456;-83
2021/12/03 20:49:34;;;;;;;;;11.67;10.00;;;;;;;;4998781;28;45443;-83
2021/12/03 21:10:20;;;;;;;;;4.67;4.67;;;;;;;;5063468;28;45560;-83
2021/12/03 21:12:47;;;;;;;;;4.33;4.33;;;;;;;;5044840;28;45718;-83
2021/12/03 21:22:36;;;;;;;;;6.00;6.00;;;;;;;;5062910;28;45374;-84
2021/12/03 21:25:06;;;;;;;;;4.67;4.67;;;;;;;;5063908;28;45390;-83
2021/12/03 21:27:35;;;;;;;;;6.33;6.33;;;;;;;;5045625;28;45472;-84
2021/12/03 21:32:40;;;;;;;;;7.00;7.00;;;;;;;;5065208;28;45414;-83
2021/12/03 21:43:10;;;;;;;;;5.33;5.33;;;;;;;;5063833;28;44916;-83
2021/12/03 21:45:35;;;;;;;;;4.67;4.67;;;;;;;;5045057;28;46960;-83
2021/12/03 21:48:00;;;;;;;;;5.33;5.33;;;;;;;;5061683;28;45393;-83
2021/12/03 21:53:28;;;;;;;;;10.67;8.33;;;;;;;;5063297;28;45921;-85
2021/12/03 21:55:54;;;;;;;;;9.67;9.67;;;;;;;;5062365;28;45525;-83
2021/12/03 21:58:19;;;;;;;;;7.67;7.67;;;;;;;;5043504;28;45574;-83
2021/12/03 22:00:45;;;;;;;;;6.67;6.67;;;;;;;;5045903;28;45425;-83
2021/12/03 22:03:11;;;;;;;;;8.33;8.00;;;;;;;;5061980;28;45374;-83
2021/12/03 22:11:43;;;;;;;;;9.67;8.33;;;;;;;;5062116;28;45791;-84
2021/12/03 22:14:08;;;;;;;;;8.00;8.00;;;;;;;;5044818;28;45334;-83
2021/12/03 22:16:34;;;;;;;;;8.00;8.00;;;;;;;;5061061;28;46644;-84
2021/12/03 22:18:59;;;;;;;;;7.33;7.00;;;;;;;;5043430;28;45536;-84
2021/12/03 22:21:24;;;;;;;;;8.33;8.00;;;;;;;;5062207;28;45826;-84
2021/12/03 22:23:51;;;;;;;;;7.67;7.67;;;;;;;;5044340;28;45821;-84
2021/12/03 22:26:17;;;;;;;;;11.33;11.33;;;;;;;;5061162;28;45642;-83
2021/12/03 22:28:42;;;;;;;;;12.00;12.00;;;;;;;;5064179;28;45395;-84
2021/12/03 22:31:08;;;;;;;;;8.33;8.33;;;;;;;;5046868;28;45364;-83
2021/12/03 22:33:33;;;;;;;;;8.00;8.00;;;;;;;;5046730;28;45371;-83
2021/12/03 22:35:59;;;;;;;;;9.33;6.67;;;;;;;;5061928;28;46995;-84
2021/12/03 22:38:25;;;;;;;;;9.67;9.67;;;;;;;;5063042;28;45505;-84
2021/12/03 22:40:50;;;;;;;;;6.00;6.00;;;;;;;;5074462;28;45336;-84
2021/12/03 22:43:17;;;;;;;;;9.00;7.00;;;;;;;;5066348;28;44885;-83
2021/12/03 22:53:45;;;;;;;;;6.00;4.00;;;;;;;;5024851;28;45970;-83
2021/12/03 22:56:10;;;;;;;;;3.00;3.00;;;;;;;;5022227;28;46372;-84
2021/12/03 22:58:35;;;;;;;;;6.00;6.00;;;;;;;;5004423;28;45389;-83
2021/12/03 23:01:07;;;;;;;;;3.67;3.67;;;;;;;;5006936;28;45912;-84
2021/12/03 23:03:34;;;;;;;;;7.00;4.00;;;;;;;;5021712;28;45446;-83
2021/12/03 23:06:00;;;;;;;;;6.00;6.00;;;;;;;;5022613;28;45976;-83
2021/12/03 23:08:25;;;;;;;;;3.33;3.33;;;;;;;;5019988;28;45838;-83
2021/12/03 23:10:51;;;;;;;;;8.00;6.00;;;;;;;;5021601;28;45960;-83
2021/12/03 23:13:17;;;;;;;;;6.67;5.33;;;;;;;;5024145;28;45552;-83
2021/12/03 23:15:42;;;;;;;;;4.33;4.33;;;;;;;;5024546;28;46620;-83
2021/12/03 23:18:10;;;;;;;;;4.00;4.00;;;;;;;;5022997;28;44839;-83
2021/12/03 23:20:35;;;;;;;;;6.67;4.67;;;;;;;;5023959;28;45489;-83
2021/12/03 23:23:01;;;;;;;;;3.00;3.00;;;;;;;;5024157;28;45612;-83
2021/12/03 23:25:26;;;;;;;;;2.67;2.00;;;;;;;;5024626;28;47658;-83
2021/12/03 23:27:52;;;;;;;;;3.00;3.00;;;;;;;;5022510;28;45561;-83
2021/12/03 23:30:17;;;;;;;;;1.67;1.33;;;;;;;;5053397;28;45533;-83
2021/12/03 23:32:43;;;;;;;;;2.00;2.00;;;;;;;;5065392;28;45531;-82
2021/12/03 23:35:09;;;;;;;;;3.00;1.00;;;;;;;;5084608;28;47075;-83
2021/12/03 23:37:35;;;;;;;;;2.33;2.33;;;;;;;;5083132;28;45586;-83
2021/12/03 23:40:01;;;;;;;;;1.00;1.00;;;;;;;;5065241;28;45478;-84
2021/12/03 23:42:26;;;;;;;;;3.00;2.00;;;;;;;;5084655;28;45506;-82
2021/12/03 23:44:52;;;;;;;;;1.00;1.00;;;;;;;;5084868;28;45917;-84
2021/12/03 23:47:17;;;;;;;;;1.00;1.00;;;;;;;;5083887;28;45403;-84
2021/12/03 23:49:42;;;;;;;;;0.00;0.00;;;;;;;;5086773;28;45656;-83
2021/12/03 23:52:07;;;;;;;;;0.00;0.00;;;;;;;;5068356;28;45569;-85
2021/12/03 23:54:34;;;;;;;;;1.00;1.00;;;;;;;;5069043;28;48449;-83
2021/12/03 23:57:00;;;;;;;;;0.00;0.00;;;;;;;;5068110;28;45846;-83
2021/12/03 23:59:27;;;;;;;;;0.00;0.00;;;;;;;;5068157;28;45788;-83
